Time;durP1;ratioP1;P1;durP2;ratioP2;P2;SDS_P1;SDS_P2;PMS_P1;PMS_P2;Temp;Humidity;BMP_temperature;BMP_pressure;BME280_temperature;BME280_humidity;BME280_pressure;Samples;Min_cycle;Max_cycle;Signal;HPM_P1;HPM_P2
2023/07/31 00:01:07;;;;;;;2.57;1.70;;;;;;;15.79;92.10;98185.34;5052270;28;20243;-86
2023/07/31 00:03:33;;;;;;;2.50;1.47;;;;;;;15.79;92.34;98185.34;5053045;28;20216;-86
2023/07/31 00:06:01;;;;;;;2.10;1.77;;;;;;;15.72;93.14;98186.88;5053092;28;20211;-86
2023/07/31 00:08:30;;;;;;;3.23;1.73;;;;;;;15.62;94.30;98181.50;5053035;28;20291;-86
2023/07/31 00:10:56;;;;;;;3.90;1.73;;;;;;;15.61;94.80;98190.50;5052243;28;20224;-87
2023/07/31 00:13:23;;;;;;;3.40;1.83;;;;;;;15.57;95.61;98185.56;5052847;28;20211;-86
2023/07/31 00:15:49;;;;;;;3.50;1.90;;;;;;;15.53;95.35;98182.31;5052816;28;20208;-86
2023/07/31 00:18:16;;;;;;;4.10;1.80;;;;;;;15.52;96.07;98190.47;5052649;28;20681;-86
2023/07/31 00:20:42;;;;;;;2.80;1.83;;;;;;;15.54;96.21;98186.69;5052093;28;20225;-86
2023/07/31 00:23:10;;;;;;;3.00;1.90;;;;;;;15.55;95.58;98190.19;5053074;28;20583;-86
2023/07/31 00:25:37;;;;;;;3.67;1.77;;;;;;;15.53;95.80;98184.16;5052920;28;20212;-86
2023/07/31 00:28:05;;;;;;;5.10;1.80;;;;;;;15.51;95.52;98183.44;5053006;28;20212;-86
2023/07/31 00:30:32;;;;;;;2.17;1.80;;;;;;;15.51;95.66;98183.44;5051959;28;20232;-86
2023/07/31 00:32:58;;;;;;;3.13;1.73;;;;;;;15.51;96.13;98186.13;5052959;28;20232;-86
2023/07/31 00:35:25;;;;;;;3.30;1.70;;;;;;;15.55;95.63;98190.19;5052782;28;20222;-86
2023/07/31 00:37:51;;;;;;;2.73;1.90;;;;;;;15.54;95.52;98185.81;5052488;28;20215;-86
2023/07/31 00:40:19;;;;;;;2.97;1.77;;;;;;;15.47;96.79;98190.00;5051671;28;20268;-86
2023/07/31 00:42:45;;;;;;;3.87;1.97;;;;;;;15.46;97.12;98191.81;5052573;28;20223;-86
2023/07/31 00:45:12;;;;;;;4.67;1.93;;;;;;;15.47;97.52;98200.66;5052328;28;20223;-86
2023/07/31 00:47:47;;;;;;;2.30;1.60;;;;;;;15.44;97.97;98196.44;5052526;28;20223;-86
2023/07/31 00:50:15;;;;;;;3.37;1.70;;;;;;;15.42;98.16;98193.09;5072734;22;20238;-79
2023/07/31 00:52:41;;;;;;;3.33;1.73;;;;;;;15.45;97.24;98197.31;5072380;28;20231;-79
2023/07/31 00:55:09;;;;;;;3.47;1.70;;;;;;;15.45;97.03;98192.81;5072374;28;20215;-80
2023/07/31 00:57:39;;;;;;;3.13;1.90;;;;;;;15.36;97.24;98188.31;5072279;28;20215;-79
2023/07/31 01:00:06;;;;;;;2.40;1.70;;;;;;;15.31;97.78;98178.97;5066475;28;20243;-79
2023/07/31 01:02:33;;;;;;;3.43;1.80;;;;;;;15.27;98.08;98182.91;5069377;28;20222;-80
2023/07/31 01:05:00;;;;;;;3.90;2.00;;;;;;;15.27;97.89;98183.72;5069253;28;20211;-80
2023/07/31 01:07:36;;;;;;;2.43;1.80;;;;;;;15.26;97.90;98186.50;5069553;28;20233;-80
2023/07/31 01:10:09;;;;;;;3.97;1.70;;;;;;;15.22;98.70;98191.25;5070514;28;20632;-79
2023/07/31 01:12:39;;;;;;;4.53;1.90;;;;;;;15.17;99.61;98190.84;5071640;28;20223;-79
2023/07/31 01:15:10;;;;;;;2.23;1.77;;;;;;;15.13;100.00;98184.09;5071899;28;20215;-80
2023/07/31 01:17:37;;;;;;;3.97;2.17;;;;;;;15.13;99.68;98175.25;5072405;28;20219;-80
2023/07/31 01:20:06;;;;;;;1.97;1.70;;;;;;;15.17;98.88;98177.53;5070967;28;20227;-79
2023/07/31 01:22:47;;;;;;;4.07;1.80;;;;;;;15.15;99.04;98178.66;5071528;28;20215;-79
2023/07/31 01:25:25;;;;;;;4.47;1.93;;;;;;;15.08;99.88;98177.47;5071922;28;20569;-79
2023/07/31 01:28:00;;;;;;;2.50;1.70;;;;;;;15.10;100.00;98170.22;5071857;28;20215;-79
2023/07/31 01:30:33;;;;;;;3.60;1.70;;;;;;;15.14;100.00;98167.13;5070526;28;20242;-79
2023/07/31 01:33:01;;;;;;;2.47;1.80;;;;;;;15.16;100.00;98164.34;5071478;28;20273;-79
2023/07/31 01:35:28;;;;;;;4.80;1.70;;;;;;;15.26;99.56;98149.22;5072109;28;20476;-79
2023/07/31 01:37:55;;;;;;;2.50;1.80;;;;;;;15.35;98.74;98143.16;5072325;28;20210;-79
2023/07/31 01:40:21;;;;;;;4.57;1.93;;;;;;;15.38;98.61;98138.41;5071499;28;20231;-80
2023/07/31 01:42:48;;;;;;;2.10;1.60;;;;;;;15.43;98.29;98137.97;5072185;28;20212;-79
2023/07/31 01:45:16;;;;;;;3.33;1.97;;;;;;;15.41;99.82;98139.94;5071581;28;20214;-79
2023/07/31 01:47:42;;;;;;;2.83;2.00;;;;;;;15.45;99.59;98146.69;5071439;28;20218;-79
2023/07/31 01:50:10;;;;;;;4.63;2.13;;;;;;;15.46;98.82;98151.03;5070596;28;20601;-79
2023/07/31 01:52:36;;;;;;;4.80;1.80;;;;;;;15.46;98.95;98148.38;5071452;28;20248;-80
2023/07/31 01:55:03;;;;;;;4.43;1.77;;;;;;;15.47;98.51;98147.41;5071438;28;20590;-79
2023/07/31 01:57:30;;;;;;;4.37;1.80;;;;;;;15.42;98.46;98145.16;5071202;28;20203;-80
2023/07/31 01:59:56;;;;;;;2.00;1.80;;;;;;;15.38;98.63;98141.06;5070310;28;20230;-80
2023/07/31 02:02:24;;;;;;;3.83;1.77;;;;;;;15.31;99.56;98136.38;5071089;28;20211;-79
2023/07/31 02:04:50;;;;;;;2.93;1.80;;;;;;;15.21;100.00;98139.00;5071517;28;20210;-80
2023/07/31 02:07:17;;;;;;;2.77;1.90;;;;;;;15.14;100.00;98140.50;5071526;28;20219;-80
2023/07/31 02:09:43;;;;;;;2.40;1.70;;;;;;;15.06;100.00;98143.00;5070531;28;20231;-80
2023/07/31 02:12:13;;;;;;;3.10;1.80;;;;;;;15.06;100.00;98136.84;5070916;28;20241;-79
2023/07/31 02:14:40;;;;;;;7.17;1.90;;;;;;;15.02;100.00;98135.44;5071019;28;20622;-79
2023/07/31 02:17:07;;;;;;;2.37;1.77;;;;;;;15.05;100.00;98124.50;5070877;28;20218;-79
2023/07/31 02:19:35;;;;;;;2.67;1.83;;;;;;;15.07;100.00;98117.22;5070319;28;20231;-80
2023/07/31 02:22:01;;;;;;;2.90;1.97;;;;;;;15.02;100.00;98119.47;5073327;28;20637;-79
2023/07/31 02:24:28;;;;;;;3.47;1.83;;;;;;;15.00;100.00;98121.41;5075149;28;20221;-79
2023/07/31 02:26:54;;;;;;;3.20;1.83;;;;;;;14.98;100.00;98112.72;5075202;28;20599;-80
2023/07/31 02:29:21;;;;;;;2.27;1.80;;;;;;;14.94;100.00;98124.59;5074046;28;20210;-80
2023/07/31 02:31:47;;;;;;;3.70;2.00;;;;;;;14.95;100.00;98112.97;5075153;28;20577;-80
2023/07/31 02:34:14;;;;;;;2.50;1.60;;;;;;;14.94;100.00;98113.94;5075300;28;20221;-80
2023/07/31 02:36:41;;;;;;;2.13;1.87;;;;;;;14.92;100.00;98113.25;5075099;28;20264;-80
2023/07/31 02:39:08;;;;;;;3.03;1.80;;;;;;;14.93;100.00;98114.94;5074293;28;20210;-79
2023/07/31 02:41:34;;;;;;;3.97;1.73;;;;;;;14.94;100.00;98103.31;5074801;28;20239;-80
2023/07/31 02:44:01;;;;;;;3.17;1.97;;;;;;;14.94;100.00;98105.97;5074647;28;20499;-79
2023/07/31 02:46:27;;;;;;;4.07;2.23;;;;;;;14.98;100.00;98102.06;5074864;28;20204;-79
2023/07/31 02:48:54;;;;;;;2.17;1.80;;;;;;;14.97;100.00;98101.22;5074560;28;20208;-80
2023/07/31 02:51:21;;;;;;;2.10;1.83;;;;;;;15.01;100.00;98094.66;5073815;28;20239;-80
2023/07/31 02:53:49;;;;;;;3.17;1.90;;;;;;;15.05;100.00;98092.56;5074635;28;20268;-79
2023/07/31 02:56:16;;;;;;;3.13;1.80;;;;;;;15.06;100.00;98091.59;5074593;28;20211;-79
2023/07/31 02:58:42;;;;;;;3.17;1.63;;;;;;;15.08;100.00;98089.63;5074482;28;20230;-79
2023/07/31 03:01:08;;;;;;;2.10;1.90;;;;;;;15.12;100.00;98096.38;5073864;28;20237;-79
2023/07/31 03:03:35;;;;;;;4.10;2.13;;;;;;;15.13;100.00;98082.06;5074663;28;20210;-79
2023/07/31 03:06:01;;;;;;;2.83;1.83;;;;;;;15.08;100.00;98081.63;5074487;28;20212;-79
2023/07/31 03:08:28;;;;;;;2.63;1.83;;;;;;;15.05;100.00;98087.25;5074249;28;20213;-79
2023/07/31 03:10:57;;;;;;;3.23;2.00;;;;;;;15.02;100.00;98092.84;5073388;28;20327;-79
2023/07/31 03:13:24;;;;;;;2.20;2.00;;;;;;;14.99;100.00;98087.78;5074000;28;20223;-79
2023/07/31 03:15:51;;;;;;;2.90;2.03;;;;;;;14.99;100.00;98101.94;5074222;28;20211;-79
2023/07/31 03:18:17;;;;;;;2.63;1.80;;;;;;;14.98;100.00;98099.41;5074046;28;20208;-80
2023/07/31 03:20:44;;;;;;;2.77;2.03;;;;;;;14.96;100.00;98098.72;5073217;28;20239;-79
2023/07/31 03:23:11;;;;;;;3.00;2.00;;;;;;;15.01;100.00;98093.78;5073940;28;20239;-80
2023/07/31 03:25:37;;;;;;;3.37;2.00;;;;;;;14.98;100.00;98091.41;5073712;28;20214;-79
2023/07/31 03:28:05;;;;;;;2.90;1.80;;;;;;;15.02;100.00;98092.84;5073813;28;20210;-79
2023/07/31 03:30:32;;;;;;;3.33;1.77;;;;;;;15.11;100.00;98092.03;5072981;28;20231;-79
2023/07/31 03:32:59;;;;;;;3.37;1.60;;;;;;;15.14;100.00;98086.41;5073234;28;20241;-79
2023/07/31 03:35:25;;;;;;;3.10;1.70;;;;;;;15.18;100.00;98088.69;5073722;28;20693;-79
2023/07/31 03:37:52;;;;;;;4.67;1.90;;;;;;;15.14;100.00;98095.25;5073876;28;20230;-79
2023/07/31 03:40:18;;;;;;;3.60;1.80;;;;;;;15.17;100.00;98104.78;5072709;28;20238;-79
2023/07/31 03:42:45;;;;;;;2.67;1.87;;;;;;;15.05;100.00;98090.75;5073781;28;20203;-79
2023/07/31 03:45:13;;;;;;;2.63;1.93;;;;;;;15.07;100.00;98087.94;5073616;28;20207;-79
2023/07/31 03:47:39;;;;;;;5.57;1.83;;;;;;;14.99;100.00;98090.44;5073314;28;20222;-80
2023/07/31 03:50:07;;;;;;;3.43;2.00;;;;;;;14.98;100.00;98096.75;5072551;28;20674;-79
2023/07/31 03:52:33;;;;;;;2.97;1.83;;;;;;;15.01;100.00;98094.66;5073279;28;20257;-79
2023/07/31 03:55:00;;;;;;;2.43;1.60;;;;;;;14.94;100.00;98101.50;5073247;28;20222;-79
2023/07/31 03:57:27;;;;;;;3.20;2.10;;;;;;;14.88;100.00;98102.03;5073669;28;20217;-79
2023/07/31 03:59:53;;;;;;;2.60;1.90;;;;;;;14.84;100.00;98105.09;5073130;28;20277;-79
2023/07/31 04:02:21;;;;;;;3.63;1.73;;;;;;;14.82;100.00;98096.38;5073549;28;20207;-79
2023/07/31 04:04:47;;;;;;;2.90;1.70;;;;;;;14.98;100.00;98091.41;5073405;28;20215;-80
2023/07/31 04:07:14;;;;;;;4.03;1.90;;;;;;;14.96;100.00;98088.06;5073306;28;20591;-79
2023/07/31 04:09:40;;;;;;;4.20;1.77;;;;;;;15.06;99.60;98078.28;5072803;28;20230;-79
2023/07/31 04:12:07;;;;;;;3.87;2.03;;;;;;;15.14;99.30;98083.75;5073213;28;20214;-79
2023/07/31 04:14:34;;;;;;;4.67;2.13;;;;;;;15.17;98.79;98078.19;5073247;28;20227;-79
2023/07/31 04:17:00;;;;;;;4.03;1.87;;;;;;;15.22;99.67;98081.28;5073051;28;20211;-79
2023/07/31 04:19:28;;;;;;;3.10;1.90;;;;;;;15.30;99.28;98081.44;5072457;28;20208;-79
2023/07/31 04:21:55;;;;;;;3.33;2.10;;;;;;;15.34;98.50;98077.56;5072983;28;20218;-79
2023/07/31 04:24:24;;;;;;;3.77;1.70;;;;;;;15.41;98.09;98079.50;5073083;28;20203;-79
2023/07/31 04:26:50;;;;;;;3.20;1.87;;;;;;;15.47;95.61;98072.81;5072998;28;20213;-79
2023/07/31 04:29:17;;;;;;;4.43;1.90;;;;;;;15.54;95.00;98074.81;5072329;28;20206;-79
2023/07/31 04:31:43;;;;;;;3.23;2.00;;;;;;;15.60;94.67;98071.59;5072755;28;20218;-79
2023/07/31 04:34:11;;;;;;;3.23;1.97;;;;;;;15.65;94.63;98066.66;5072707;28;20233;-79
2023/07/31 04:36:38;;;;;;;3.43;2.03;;;;;;;15.77;94.45;98064.72;5072940;28;20211;-79
2023/07/31 04:39:05;;;;;;;6.40;1.70;;;;;;;15.84;93.37;98060.50;5072716;28;20215;-79
2023/07/31 04:41:31;;;;;;;5.77;2.13;;;;;;;15.96;91.93;98057.56;5072699;28;20223;-79
2023/07/31 04:43:58;;;;;;;2.83;1.80;;;;;;;16.00;91.94;98060.81;5071735;28;20210;-79
2023/07/31 04:46:24;;;;;;;2.27;1.80;;;;;;;16.09;91.75;98072.28;5072617;28;20214;-79
2023/07/31 04:48:51;;;;;;;3.13;1.60;;;;;;;16.14;91.37;98064.69;5072205;28;20214;-79
2023/07/31 04:51:17;;;;;;;4.27;2.10;;;;;;;16.18;91.54;98071.44;5071414;28;20242;-79
2023/07/31 04:53:45;;;;;;;4.53;1.87;;;;;;;16.23;91.22;98063.00;5072394;28;20234;-79
2023/07/31 04:56:12;;;;;;;3.07;1.87;;;;;;;16.33;89.62;98054.00;5072539;28;20207;-79
2023/07/31 04:58:38;;;;;;;3.13;1.80;;;;;;;16.44;89.27;98056.53;5072455;28;20212;-79
2023/07/31 05:01:05;;;;;;;3.80;1.80;;;;;;;16.51;87.76;98054.97;5071343;28;20237;-79
2023/07/31 05:03:31;;;;;;;3.17;1.80;;;;;;;16.60;87.35;98053.28;5072304;28;20478;-79
2023/07/31 05:05:57;;;;;;;3.80;1.73;;;;;;;16.63;86.91;98048.47;5072481;28;20341;-79
2023/07/31 05:08:24;;;;;;;3.50;2.30;;;;;;;16.68;86.92;98046.22;5072130;28;20292;-79
2023/07/31 05:10:52;;;;;;;4.40;1.97;;;;;;;16.67;87.18;98046.38;5071169;28;20231;-79
2023/07/31 05:13:19;;;;;;;2.47;1.77;;;;;;;16.70;86.57;98041.56;5071897;28;20234;-80
2023/07/31 05:15:46;;;;;;;2.80;2.00;;;;;;;16.74;86.21;98040.31;5071762;28;20215;-80
2023/07/31 05:18:12;;;;;;;3.37;1.80;;;;;;;16.81;85.15;98037.88;5071696;28;20243;-80
2023/07/31 05:20:39;;;;;;;2.47;1.70;;;;;;;16.81;85.71;98041.41;5071242;28;20250;-79
2023/07/31 05:23:05;;;;;;;2.60;1.53;;;;;;;16.91;84.89;98030.66;5071717;28;20207;-80
2023/07/31 05:25:32;;;;;;;3.53;1.70;;;;;;;16.99;84.64;98036.97;5071675;28;20211;-79
2023/07/31 05:28:00;;;;;;;2.30;1.90;;;;;;;17.14;83.52;98038.13;5071700;28;20207;-79
2023/07/31 05:30:26;;;;;;;3.03;1.80;;;;;;;17.30;82.59;98040.16;5070643;28;20262;-79
2023/07/31 05:32:53;;;;;;;2.83;1.63;;;;;;;17.40;82.30;98033.81;5071804;28;20214;-79
2023/07/31 05:35:19;;;;;;;3.10;1.60;;;;;;;17.64;81.00;98030.53;5071978;28;20218;-80
2023/07/31 05:37:46;;;;;;;2.50;1.70;;;;;;;17.89;80.34;98030.63;5071765;28;20207;-80
2023/07/31 05:40:12;;;;;;;3.47;1.73;;;;;;;18.04;78.95;98026.41;5070955;28;20227;-80
2023/07/31 05:42:39;;;;;;;2.70;1.83;;;;;;;18.32;77.24;98019.97;5071584;28;20208;-80
2023/07/31 05:45:08;;;;;;;2.00;1.63;;;;;;;18.43;76.07;98025.06;5071661;28;20269;-80
2023/07/31 05:47:34;;;;;;;3.37;1.60;;;;;;;18.53;74.59;98007.06;5071585;28;20204;-80
2023/07/31 05:50:01;;;;;;;2.47;1.90;;;;;;;18.65;74.75;98002.28;5070618;28;20611;-80
2023/07/31 05:52:28;;;;;;;3.13;1.70;;;;;;;18.67;74.56;98005.63;5071585;28;20203;-80
2023/07/31 05:54:55;;;;;;;3.20;1.80;;;;;;;18.50;75.60;98017.22;5071072;28;20238;-80
2023/07/31 05:57:21;;;;;;;3.90;1.73;;;;;;;18.35;75.75;98006.25;5071475;28;20203;-80
2023/07/31 05:59:48;;;;;;;2.27;1.77;;;;;;;18.24;76.08;98016.38;5070299;28;20223;-80
2023/07/31 06:02:16;;;;;;;3.37;1.90;;;;;;;18.14;76.15;98015.59;5071405;28;20250;-79
2023/07/31 06:04:42;;;;;;;3.67;2.10;;;;;;;18.13;77.07;98014.78;5071291;28;20199;-80
2023/07/31 06:07:09;;;;;;;2.73;1.90;;;;;;;18.17;76.00;98008.09;5071556;28;20235;-80
2023/07/31 06:09:35;;;;;;;3.47;1.93;;;;;;;18.36;76.48;98015.97;5070744;28;20235;-79
2023/07/31 06:12:04;;;;;;;2.03;1.80;;;;;;;18.54;76.34;98023.97;5071362;28;20219;-79
2023/07/31 06:14:31;;;;;;;3.27;1.57;;;;;;;18.55;76.31;98014.94;5070935;28;20235;-81
2023/07/31 06:16:57;;;;;;;3.43;1.77;;;;;;;18.66;76.46;98023.53;5071446;28;20215;-81
2023/07/31 06:19:25;;;;;;;2.73;1.60;;;;;;;18.86;74.89;98008.91;5070731;28;20222;-81
2023/07/31 06:21:52;;;;;;;3.60;1.73;;;;;;;19.21;73.61;98019.47;5070860;28;20673;-81
2023/07/31 06:24:20;;;;;;;3.97;2.00;;;;;;;19.81;71.83;98004.84;5070892;28;20199;-81
2023/07/31 06:26:47;;;;;;;5.80;1.80;;;;;;;20.32;68.80;97996.50;5070858;28;20210;-81
2023/07/31 06:29:13;;;;;;;4.30;1.80;;;;;;;20.91;66.18;97987.16;5069993;28;20662;-81
2023/07/31 06:31:41;;;;;;;3.13;1.87;;;;;;;21.43;64.81;97981.03;5070675;28;20230;-82
2023/07/31 06:34:07;;;;;;;3.40;1.70;;;;;;;21.79;60.87;97963.31;5070782;28;20227;-81
2023/07/31 06:36:35;;;;;;;2.27;1.70;;;;;;;21.85;58.20;97951.84;5070799;28;20213;-82
2023/07/31 06:39:05;;;;;;;3.83;1.60;;;;;;;21.89;57.81;97947.75;5070479;28;20202;-81
2023/07/31 06:41:31;;;;;;;5.03;1.80;;;;;;;21.88;57.06;97945.25;5069978;28;20227;-80
2023/07/31 06:43:58;;;;;;;3.90;1.87;;;;;;;21.79;56.78;97952.56;5070886;28;20211;-81
2023/07/31 06:46:24;;;;;;;3.50;1.70;;;;;;;21.22;57.09;97943.16;5070919;28;20213;-81
2023/07/31 06:48:51;;;;;;;5.50;2.10;;;;;;;21.06;57.61;97948.63;5071305;28;20211;-81
2023/07/31 06:51:17;;;;;;;2.67;1.53;;;;;;;20.90;58.17;97964.81;5070844;28;20231;-81
2023/07/31 06:53:45;;;;;;;3.10;1.87;;;;;;;21.05;59.46;97976.53;5070985;28;20238;-81
2023/07/31 06:56:12;;;;;;;3.97;1.80;;;;;;;21.00;58.76;97965.44;5070764;28;20207;-81
2023/07/31 06:58:38;;;;;;;4.10;1.80;;;;;;;20.90;58.70;97970.19;5070878;28;20223;-80
2023/07/31 07:01:05;;;;;;;3.40;2.00;;;;;;;20.93;60.54;97985.13;5069084;28;20313;-81
2023/07/31 07:03:32;;;;;;;4.13;1.80;;;;;;;21.17;60.26;97977.81;5068949;28;20682;-82
2023/07/31 07:05:58;;;;;;;3.53;1.90;;;;;;;21.08;58.26;97961.91;5067414;28;20203;-81
2023/07/31 07:08:25;;;;;;;4.77;1.97;;;;;;;21.18;58.30;97963.34;5070634;28;20763;-82
2023/07/31 07:10:53;;;;;;;5.03;2.07;;;;;;;21.20;57.64;97964.00;5067487;28;20577;-82
2023/07/31 07:13:20;;;;;;;5.83;2.10;;;;;;;21.03;57.17;97954.34;5072252;28;20204;-82
2023/07/31 07:15:49;;;;;;;3.80;1.80;;;;;;;21.08;58.66;97957.34;5073058;28;20298;-82
2023/07/31 07:18:15;;;;;;;3.80;1.90;;;;;;;21.08;58.48;97962.72;5069442;28;20212;-82
2023/07/31 07:20:47;;;;;;;2.77;1.80;;;;;;;21.36;58.34;97966.59;5069120;28;20230;-82
2023/07/31 07:23:14;;;;;;;3.27;1.80;;;;;;;21.42;57.72;97957.00;5070696;28;20217;-82
2023/07/31 07:25:40;;;;;;;3.27;1.60;;;;;;;21.64;57.49;97951.63;5071705;28;20547;-82
2023/07/31 07:28:08;;;;;;;4.60;1.70;;;;;;;21.77;57.82;97954.56;5072996;28;20219;-83
2023/07/31 07:30:34;;;;;;;2.77;1.57;;;;;;;21.77;57.63;97949.19;5071752;28;20708;-83
2023/07/31 07:33:01;;;;;;;3.63;1.80;;;;;;;21.68;56.95;97939.53;5071885;28;20217;-82
2023/07/31 07:35:28;;;;;;;3.23;2.07;;;;;;;21.54;57.65;97952.88;5073217;28;20250;-82
2023/07/31 07:37:54;;;;;;;3.03;1.67;;;;;;;21.27;58.31;97951.53;5073036;28;20207;-82
2023/07/31 07:40:21;;;;;;;4.53;1.97;;;;;;;21.22;58.86;97959.28;5071820;28;20316;-81
2023/07/31 07:42:48;;;;;;;3.97;1.90;;;;;;;21.22;59.70;97967.34;5072258;28;20210;-82
2023/07/31 07:45:15;;;;;;;2.63;1.73;;;;;;;21.10;59.30;97955.31;5073522;28;20215;-82
2023/07/31 07:47:42;;;;;;;3.03;1.90;;;;;;;21.05;58.91;97951.47;5073503;28;20638;-86
2023/07/31 07:50:09;;;;;;;3.30;2.10;;;;;;;21.18;59.23;97954.44;5072552;28;20235;-84
2023/07/31 07:52:36;;;;;;;3.50;1.90;;;;;;;21.38;59.79;97967.25;5073794;28;20295;-84
2023/07/31 07:55:03;;;;;;;6.13;2.20;;;;;;;21.54;59.61;97967.16;5073754;28;20249;-84
2023/07/31 07:57:30;;;;;;;4.00;1.73;;;;;;;21.69;58.75;97957.34;5073632;28;20239;-85
2023/07/31 07:59:56;;;;;;;3.80;1.97;;;;;;;21.91;57.41;97940.34;5072644;28;20241;-84
2023/07/31 08:02:24;;;;;;;2.90;1.70;;;;;;;22.05;57.38;97947.63;5073343;28;20214;-85
2023/07/31 08:04:50;;;;;;;2.10;1.83;;;;;;;22.22;57.79;97951.84;5072949;28;20218;-80
2023/07/31 08:07:17;;;;;;;2.67;1.77;;;;;;;22.24;55.65;97922.88;5073340;28;20207;-79
2023/07/31 08:09:43;;;;;;;3.43;1.67;;;;;;;22.12;56.79;97934.28;5071135;28;20235;-80
2023/07/31 08:12:10;;;;;;;3.13;1.80;;;;;;;21.92;56.61;97925.03;5070353;28;20234;-80
2023/07/31 08:14:36;;;;;;;5.37;2.47;;;;;;;21.68;56.67;97926.06;5069950;28;20322;-80
2023/07/31 08:17:04;;;;;;;5.20;2.13;;;;;;;21.66;57.77;97940.69;5069127;28;20211;-80
2023/07/31 08:19:32;;;;;;;3.57;1.80;;;;;;;21.76;56.13;97922.50;5070290;28;20310;-80
2023/07/31 08:21:59;;;;;;;2.97;1.77;;;;;;;21.92;57.09;97922.34;5073167;28;20207;-80
2023/07/31 08:24:25;;;;;;;4.67;2.00;;;;;;;22.02;56.85;97931.84;5071245;28;20209;-80
2023/07/31 08:26:52;;;;;;;3.93;2.23;;;;;;;22.10;56.20;97923.69;5070349;28;20214;-80
2023/07/31 08:29:18;;;;;;;3.70;2.20;;;;;;;22.12;55.20;97910.88;5069382;28;20203;-80
2023/07/31 08:31:45;;;;;;;4.03;1.90;;;;;;;22.19;55.45;97911.81;5069994;28;20214;-80
2023/07/31 08:34:11;;;;;;;5.53;2.23;;;;;;;22.47;55.78;97906.66;5072264;28;20249;-80
2023/07/31 08:36:39;;;;;;;4.37;2.20;;;;;;;22.63;54.49;97893.88;5072938;28;20204;-80
2023/07/31 08:39:06;;;;;;;3.50;1.97;;;;;;;22.87;54.78;97915.09;5070240;28;20212;-80
2023/07/31 08:41:32;;;;;;;3.67;2.10;;;;;;;23.18;54.52;97909.50;5068414;28;20483;-81
2023/07/31 08:44:00;;;;;;;3.50;2.30;;;;;;;23.26;53.62;97891.34;5069750;28;20200;-81
2023/07/31 08:46:27;;;;;;;3.47;2.10;;;;;;;23.30;53.85;97894.50;5070823;28;20209;-81
2023/07/31 08:48:56;;;;;;;5.50;2.10;;;;;;;23.43;53.38;97890.09;5071461;28;20627;-81
2023/07/31 08:51:22;;;;;;;3.73;1.77;;;;;;;23.47;51.98;97882.44;5069211;28;20249;-81
2023/07/31 08:53:50;;;;;;;3.37;2.10;;;;;;;23.54;53.03;97894.94;5071243;28;20218;-81
2023/07/31 08:56:17;;;;;;;2.57;1.70;;;;;;;23.60;51.96;97888.78;5071240;28;20214;-81
2023/07/31 08:58:45;;;;;;;3.73;1.70;;;;;;;23.77;52.60;97894.78;5070253;28;20214;-81
2023/07/31 09:01:12;;;;;;;5.43;2.30;;;;;;;23.87;51.86;97888.03;5071363;28;20736;-82
2023/07/31 09:03:40;;;;;;;3.30;2.13;;;;;;;24.16;51.91;97885.16;5072458;28;20207;-82
2023/07/31 09:06:08;;;;;;;4.40;2.03;;;;;;;24.19;50.43;97862.34;5072112;28;20215;-79
2023/07/31 09:08:34;;;;;;;4.33;2.20;;;;;;;24.24;50.31;97855.31;5071743;28;20568;-81
2023/07/31 09:11:04;;;;;;;3.47;1.80;;;;;;;24.28;49.62;97851.19;5071338;28;20231;-82
2023/07/31 09:13:32;;;;;;;3.23;2.10;;;;;;;24.47;50.56;97868.53;5072178;28;20213;-82
2023/07/31 09:15:59;;;;;;;4.23;2.10;;;;;;;24.49;51.04;97880.81;5072053;28;20229;-82
2023/07/31 09:18:27;;;;;;;6.13;2.20;;;;;;;24.42;50.98;97877.22;5072092;28;20307;-82
2023/07/31 09:21:03;;;;;;;2.77;1.83;;;;;;;23.81;50.61;97864.50;5071155;28;20807;-83
2023/07/31 09:23:42;;;;;;;4.23;2.03;;;;;;;23.90;50.43;97863.34;5072634;28;20199;-81
2023/07/31 09:26:10;;;;;;;3.73;2.43;;;;;;;23.74;51.54;97869.00;5073429;28;20218;-84
2023/07/31 09:28:36;;;;;;;3.23;2.13;;;;;;;23.87;50.50;97863.75;5074304;28;20207;-83
2023/07/31 09:31:03;;;;;;;5.90;2.00;;;;;;;23.70;51.19;97862.31;5072495;28;20223;-83
2023/07/31 09:33:30;;;;;;;4.43;1.90;;;;;;;23.65;51.15;97867.47;5071724;28;20203;-84
2023/07/31 09:36:00;;;;;;;4.50;2.13;;;;;;;23.67;51.21;97860.03;5071552;28;20234;-82
2023/07/31 09:38:26;;;;;;;3.07;2.27;;;;;;;23.56;52.62;97867.78;5070812;28;20212;-82
2023/07/31 09:40:53;;;;;;;3.93;2.30;;;;;;;23.43;51.95;97865.81;5070632;28;20234;-82
2023/07/31 09:43:23;;;;;;;5.50;2.33;;;;;;;23.41;52.26;97867.03;5069387;28;20210;-82
2023/07/31 09:45:56;;;;;;;5.00;2.17;;;;;;;23.41;52.28;97859.75;5068730;28;20294;-81
2023/07/31 09:48:26;;;;;;;3.27;1.97;;;;;;;23.31;52.04;97834.13;5069733;28;20207;-82
2023/07/31 09:50:53;;;;;;;3.87;2.27;;;;;;;23.23;52.97;97843.19;5069176;28;20239;-82
2023/07/31 09:53:19;;;;;;;4.53;2.23;;;;;;;23.18;54.10;97842.94;5071309;28;20218;-81
2023/07/31 09:55:46;;;;;;;3.83;2.30;;;;;;;23.09;52.82;97824.31;5071367;28;20245;-81
2023/07/31 09:58:14;;;;;;;3.37;1.90;;;;;;;23.14;52.76;97838.91;5071640;28;20620;-80
2023/07/31 10:00:42;;;;;;;3.17;1.90;;;;;;;23.29;53.49;97826.22;5070711;28;20211;-82
2023/07/31 10:03:10;;;;;;;4.97;2.40;;;;;;;23.68;53.49;97842.81;5071564;28;20646;-84
2023/07/31 10:05:40;;;;;;;4.23;1.90;;;;;;;24.07;53.46;97843.13;5071208;28;20215;-78
2023/07/31 10:08:09;;;;;;;4.83;2.10;;;;;;;24.24;52.48;97833.69;5071159;28;20301;-82
2023/07/31 10:10:37;;;;;;;2.53;1.90;;;;;;;24.12;50.60;97802.88;5070637;28;20247;-82
2023/07/31 10:13:06;;;;;;;4.10;2.20;;;;;;;24.16;49.64;97798.75;5071339;28;20207;-81
2023/07/31 10:15:33;;;;;;;3.77;2.27;;;;;;;23.79;48.90;97776.66;5071153;28;20309;-82
2023/07/31 10:18:01;;;;;;;4.53;2.40;;;;;;;23.90;50.22;97798.56;5071611;28;20207;-81
2023/07/31 10:20:30;;;;;;;5.70;2.33;;;;;;;23.83;50.31;97791.44;5071451;28;20234;-81
2023/07/31 10:22:58;;;;;;;4.07;2.23;;;;;;;23.70;51.47;97802.94;5071810;28;20214;-81
2023/07/31 10:25:27;;;;;;;3.30;2.07;;;;;;;23.94;50.35;97793.59;5072025;28;20245;-84
2023/07/31 10:27:55;;;;;;;2.50;1.60;;;;;;;24.12;49.99;97793.94;5072227;28;20208;-83
2023/07/31 10:30:25;;;;;;;4.00;2.33;;;;;;;24.23;50.04;97788.81;5070451;28;20233;-82
2023/07/31 10:32:53;;;;;;;2.87;1.90;;;;;;;24.39;50.78;97790.34;5070951;28;20208;-82
2023/07/31 10:35:22;;;;;;;5.33;2.10;;;;;;;24.41;50.85;97790.97;5071015;28;20764;-78
2023/07/31 10:37:49;;;;;;;3.77;2.13;;;;;;;24.36;49.79;97778.06;5071105;28;20230;-81
2023/07/31 10:40:19;;;;;;;2.60;1.83;;;;;;;24.40;49.94;97776.66;5070257;28;20230;-82
2023/07/31 10:42:48;;;;;;;3.93;2.33;;;;;;;24.52;49.72;97777.75;5071486;28;21133;-81
2023/07/31 10:45:24;;;;;;;3.20;1.93;;;;;;;24.53;49.55;97784.81;5074631;28;20222;-80
2023/07/31 10:47:59;;;;;;;5.00;2.27;;;;;;;24.47;48.98;97776.66;5075084;28;20203;-78
2023/07/31 10:50:28;;;;;;;2.77;2.00;;;;;;;24.52;49.85;97777.75;5074219;28;20235;-78
2023/07/31 10:52:58;;;;;;;2.73;2.10;;;;;;;24.72;49.11;97781.38;5074704;28;20665;-78
2023/07/31 10:55:27;;;;;;;4.77;2.20;;;;;;;24.93;48.39;97772.28;5074724;28;20227;-78
2023/07/31 10:57:54;;;;;;;4.53;2.00;;;;;;;24.87;48.17;97765.00;5074413;28;20218;-77
2023/07/31 11:00:23;;;;;;;4.73;2.30;;;;;;;25.00;48.72;97781.25;5073942;28;20227;-78
2023/07/31 11:02:58;;;;;;;4.00;2.00;;;;;;;24.90;48.58;97762.72;5074048;28;20203;-77
2023/07/31 11:05:42;;;;;;;3.47;2.17;;;;;;;24.96;48.08;97753.78;5074320;28;20203;-78
2023/07/31 11:08:17;;;;;;;3.80;2.10;;;;;;;25.13;48.09;97749.66;5073944;28;20210;-78
2023/07/31 11:10:44;;;;;;;4.17;2.20;;;;;;;25.20;48.64;97761.31;5073499;28;20223;-78
2023/07/31 11:13:11;;;;;;;2.57;1.83;;;;;;;25.22;48.27;97753.81;5073700;28;20646;-78
2023/07/31 11:15:38;;;;;;;4.43;2.40;;;;;;;25.24;47.66;97748.25;5074081;28;20736;-78
2023/07/31 11:18:05;;;;;;;4.10;2.00;;;;;;;25.23;47.95;97752.78;5074122;28;20215;-78
2023/07/31 11:20:34;;;;;;;3.67;2.20;;;;;;;25.22;47.59;97737.59;5073364;28;20227;-78
2023/07/31 11:23:02;;;;;;;4.30;2.43;;;;;;;25.17;48.02;97750.91;5073138;28;20214;-79
2023/07/31 11:25:30;;;;;;;4.50;2.17;;;;;;;25.22;48.62;97764.66;5071877;28;20204;-78
2023/07/31 11:27:57;;;;;;;2.80;2.13;;;;;;;25.23;48.21;97744.66;5073078;28;20877;-77
2023/07/31 11:30:23;;;;;;;6.10;2.30;;;;;;;25.12;47.42;97736.34;5072525;28;20235;-77
2023/07/31 11:32:50;;;;;;;3.97;2.40;;;;;;;25.09;48.59;97745.69;5072413;28;20207;-77